Malaysia Virtual Airlines Airport Information Service

Hong Kong International Airport

ICAO: VHHH Country: Hong Kong
Latitude: 22.3089 Longitude: 113.915
Latest Arrival : MK6106 (WMKK-VHHH) Latest Departure : MH79 (VHHH-WMKK)


WX CaptureLIVE
Data provided by noaa.gov | Fetched at 07:29:12

METAR : VHHH 160630Z 08012KT 040V120 9999 FEW015 27/20 Q1012 NOSIG

TAF : VHHH 160500Z 1606/1712 09010KT 7000 FEW015 SCT030 TX27/1606Z TX27/1706Z TN22/1623Z TEMPO 1608/1612 4000 SHRA FEW010CB SCT030 TEMPO 1615/1621 4000 SHRA FEW010CB SCT030


Runway Data for VHHH
Data provided by openaviationdata.com

Runway ID Mag Var Hdg Length Elevation Surface ILS Freq ILS Id ILS Slope
07L -2 72° 12431 ft 28 ft Asphalt 111.1 IZSL 3
07R -2 72° 12431 ft 28 ft Asphalt 109.3 ISR 3
25L -2 252° 12431 ft 28 ft Asphalt 108.9 IFL 3
25R -2 252° 12431 ft 28 ft Asphalt 110.9 ITFR 3

Hong Kong International Airport, Hong Kong
Use only for reference purposes



Not for navigational purposes.